sensor_id;sensor_type;location;lat;lon;timestamp;P1;durP1;ratioP1;P2;durP2;ratioP2
32746;SDS011;19118;50.860;13.662;2022-10-31T00:00:10;6.95;;;2.35;;
32746;SDS011;19118;50.860;13.662;2022-10-31T00:05:11;7.75;;;1.98;;
32746;SDS011;19118;50.860;13.662;2022-10-31T00:10:12;8.52;;;1.40;;
32746;SDS011;19118;50.860;13.662;2022-10-31T00:15:12;9.55;;;2.17;;
32746;SDS011;19118;50.860;13.662;2022-10-31T00:20:12;11.48;;;2.20;;
32746;SDS011;19118;50.860;13.662;2022-10-31T00:25:13;6.55;;;2.20;;
32746;SDS011;19118;50.860;13.662;2022-10-31T00:30:13;8.85;;;2.10;;
32746;SDS011;19118;50.860;13.662;2022-10-31T00:35:15;10.00;;;2.17;;
32746;SDS011;19118;50.860;13.662;2022-10-31T00:40:18;9.27;;;2.15;;
32746;SDS011;19118;50.860;13.662;2022-10-31T00:45:18;10.85;;;2.35;;
32746;SDS011;19118;50.860;13.662;2022-10-31T00:50:19;7.47;;;2.10;;
32746;SDS011;19118;50.860;13.662;2022-10-31T00:55:19;6.50;;;2.30;;
32746;SDS011;19118;50.860;13.662;2022-10-31T01:00:19;15.43;;;2.70;;
32746;SDS011;19118;50.860;13.662;2022-10-31T01:05:21;11.60;;;2.50;;
32746;SDS011;19118;50.860;13.662;2022-10-31T01:10:22;22.23;;;2.08;;
32746;SDS011;19118;50.860;13.662;2022-10-31T01:15:25;12.48;;;2.20;;
32746;SDS011;19118;50.860;13.662;2022-10-31T01:20:26;14.43;;;3.03;;
32746;SDS011;19118;50.860;13.662;2022-10-31T01:25:27;13.93;;;2.15;;
32746;SDS011;19118;50.860;13.662;2022-10-31T01:30:28;9.07;;;2.40;;
32746;SDS011;19118;50.860;13.662;2022-10-31T01:35:28;16.58;;;2.92;;
32746;SDS011;19118;50.860;13.662;2022-10-31T01:40:29;8.13;;;2.50;;
32746;SDS011;19118;50.860;13.662;2022-10-31T01:45:30;9.50;;;1.75;;
32746;SDS011;19118;50.860;13.662;2022-10-31T01:50:31;21.48;;;2.65;;
32746;SDS011;19118;50.860;13.662;2022-10-31T01:55:38;11.90;;;2.28;;
32746;SDS011;19118;50.860;13.662;2022-10-31T02:00:42;9.52;;;2.60;;
32746;SDS011;19118;50.860;13.662;2022-10-31T02:05:45;9.35;;;1.80;;
32746;SDS011;19118;50.860;13.662;2022-10-31T02:10:46;9.30;;;2.05;;
32746;SDS011;19118;50.860;13.662;2022-10-31T02:15:49;17.45;;;2.10;;
32746;SDS011;19118;50.860;13.662;2022-10-31T02:31:50;12.60;;;2.22;;
32746;SDS011;19118;50.860;13.662;2022-10-31T02:47:16;12.80;;;2.30;;
32746;SDS011;19118;50.860;13.662;2022-10-31T02:52:20;8.50;;;2.33;;
32746;SDS011;19118;50.860;13.662;2022-10-31T02:57:30;8.23;;;1.90;;
32746;SDS011;19118;50.860;13.662;2022-10-31T03:13:23;11.18;;;2.20;;
32746;SDS011;19118;50.860;13.662;2022-10-31T03:18:37;18.25;;;2.42;;
32746;SDS011;19118;50.860;13.662;2022-10-31T03:23:41;5.55;;;2.25;;
32746;SDS011;19118;50.860;13.662;2022-10-31T03:34:00;14.23;;;2.15;;
32746;SDS011;19118;50.860;13.662;2022-10-31T03:39:04;10.30;;;2.67;;
32746;SDS011;19118;50.860;13.662;2022-10-31T03:44:11;10.32;;;2.47;;
32746;SDS011;19118;50.860;13.662;2022-10-31T03:49:15;15.95;;;2.92;;
32746;SDS011;19118;50.860;13.662;2022-10-31T04:00:11;15.95;;;3.40;;
32746;SDS011;19118;50.860;13.662;2022-10-31T04:05:19;13.68;;;2.95;;
32746;SDS011;19118;50.860;13.662;2022-10-31T04:10:21;13.05;;;3.13;;
32746;SDS011;19118;50.860;13.662;2022-10-31T04:15:23;16.65;;;3.13;;
32746;SDS011;19118;50.860;13.662;2022-10-31T04:20:31;15.25;;;4.28;;
32746;SDS011;19118;50.860;13.662;2022-10-31T04:25:33;16.45;;;2.97;;
32746;SDS011;19118;50.860;13.662;2022-10-31T04:30:34;9.10;;;2.67;;
32746;SDS011;19118;50.860;13.662;2022-10-31T04:35:34;11.05;;;2.55;;
32746;SDS011;19118;50.860;13.662;2022-10-31T04:40:35;15.30;;;2.95;;
32746;SDS011;19118;50.860;13.662;2022-10-31T04:45:56;9.63;;;3.15;;
32746;SDS011;19118;50.860;13.662;2022-10-31T04:51:00;24.35;;;2.92;;
32746;SDS011;19118;50.860;13.662;2022-10-31T04:56:01;11.77;;;2.95;;
32746;SDS011;19118;50.860;13.662;2022-10-31T05:01:09;12.52;;;3.63;;
32746;SDS011;19118;50.860;13.662;2022-10-31T05:06:10;6.68;;;2.60;;
32746;SDS011;19118;50.860;13.662;2022-10-31T05:11:14;8.90;;;3.78;;
32746;SDS011;19118;50.860;13.662;2022-10-31T05:16:17;19.52;;;3.40;;
32746;SDS011;19118;50.860;13.662;2022-10-31T05:21:36;11.45;;;2.63;;
32746;SDS011;19118;50.860;13.662;2022-10-31T05:26:37;12.30;;;3.45;;
32746;SDS011;19118;50.860;13.662;2022-10-31T05:31:37;17.48;;;4.05;;
32746;SDS011;19118;50.860;13.662;2022-10-31T05:36:40;8.30;;;2.83;;
32746;SDS011;19118;50.860;13.662;2022-10-31T05:41:51;15.95;;;2.95;;
32746;SDS011;19118;50.860;13.662;2022-10-31T05:46:58;13.65;;;3.00;;
32746;SDS011;19118;50.860;13.662;2022-10-31T05:52:17;14.10;;;3.23;;
32746;SDS011;19118;50.860;13.662;2022-10-31T05:57:27;7.57;;;2.63;;
32746;SDS011;19118;50.860;13.662;2022-10-31T06:02:29;8.88;;;2.78;;
32746;SDS011;19118;50.860;13.662;2022-10-31T06:07:54;9.43;;;3.58;;
32746;SDS011;19118;50.860;13.662;2022-10-31T06:12:56;12.32;;;3.00;;
32746;SDS011;19118;50.860;13.662;2022-10-31T06:18:17;17.10;;;3.75;;
32746;SDS011;19118;50.860;13.662;2022-10-31T06:23:23;21.83;;;6.03;;
32746;SDS011;19118;50.860;13.662;2022-10-31T06:28:29;13.95;;;5.80;;
32746;SDS011;19118;50.860;13.662;2022-10-31T06:33:36;15.50;;;6.25;;
32746;SDS011;19118;50.860;13.662;2022-10-31T06:38:36;19.55;;;6.03;;
32746;SDS011;19118;50.860;13.662;2022-10-31T06:43:39;14.63;;;4.20;;
32746;SDS011;19118;50.860;13.662;2022-10-31T06:49:06;7.38;;;3.08;;
32746;SDS011;19118;50.860;13.662;2022-10-31T06:54:24;10.88;;;3.83;;
32746;SDS011;19118;50.860;13.662;2022-10-31T06:59:24;17.65;;;6.25;;
32746;SDS011;19118;50.860;13.662;2022-10-31T07:04:40;11.32;;;4.10;;
32746;SDS011;19118;50.860;13.662;2022-10-31T07:09:41;9.43;;;3.92;;
32746;SDS011;19118;50.860;13.662;2022-10-31T07:14:44;15.93;;;4.18;;
32746;SDS011;19118;50.860;13.662;2022-10-31T07:19:44;10.82;;;4.82;;
32746;SDS011;19118;50.860;13.662;2022-10-31T07:24:47;20.17;;;6.80;;
32746;SDS011;19118;50.860;13.662;2022-10-31T07:30:17;11.88;;;5.43;;
32746;SDS011;19118;50.860;13.662;2022-10-31T07:35:20;19.52;;;7.05;;
32746;SDS011;19118;50.860;13.662;2022-10-31T07:40:30;21.67;;;8.55;;
32746;SDS011;19118;50.860;13.662;2022-10-31T07:45:30;18.70;;;5.05;;
32746;SDS011;19118;50.860;13.662;2022-10-31T07:50:49;17.47;;;4.07;;
32746;SDS011;19118;50.860;13.662;2022-10-31T07:56:19;11.63;;;4.28;;
32746;SDS011;19118;50.860;13.662;2022-10-31T08:01:20;16.77;;;3.67;;
32746;SDS011;19118;50.860;13.662;2022-10-31T08:06:36;14.77;;;3.97;;
32746;SDS011;19118;50.860;13.662;2022-10-31T08:11:46;12.93;;;3.70;;
32746;SDS011;19118;50.860;13.662;2022-10-31T08:16:47;11.27;;;3.30;;
32746;SDS011;19118;50.860;13.662;2022-10-31T08:21:50;12.73;;;3.65;;
32746;SDS011;19118;50.860;13.662;2022-10-31T08:26:51;15.70;;;4.85;;
32746;SDS011;19118;50.860;13.662;2022-10-31T08:31:52;13.52;;;3.95;;
32746;SDS011;19118;50.860;13.662;2022-10-31T08:37:11;11.70;;;3.58;;
32746;SDS011;19118;50.860;13.662;2022-10-31T08:42:19;10.27;;;4.57;;
32746;SDS011;19118;50.860;13.662;2022-10-31T08:47:20;11.02;;;3.92;;
32746;SDS011;19118;50.860;13.662;2022-10-31T08:52:24;13.65;;;3.70;;
32746;SDS011;19118;50.860;13.662;2022-10-31T08:57:30;25.05;;;3.83;;
32746;SDS011;19118;50.860;13.662;2022-10-31T09:02:32;20.52;;;3.85;;
32746;SDS011;19118;50.860;13.662;2022-10-31T09:07:34;16.90;;;4.03;;
32746;SDS011;19118;50.860;13.662;2022-10-31T09:12:34;15.13;;;4.85;;
32746;SDS011;19118;50.860;13.662;2022-10-31T09:17:55;19.92;;;5.43;;
32746;SDS011;19118;50.860;13.662;2022-10-31T09:23:06;24.17;;;4.50;;
32746;SDS011;19118;50.860;13.662;2022-10-31T09:28:13;13.65;;;4.85;;
32746;SDS011;19118;50.860;13.662;2022-10-31T09:33:16;19.08;;;4.85;;
32746;SDS011;19118;50.860;13.662;2022-10-31T09:38:25;17.70;;;4.63;;
32746;SDS011;19118;50.860;13.662;2022-10-31T09:54:30;24.13;;;4.75;;
32746;SDS011;19118;50.860;13.662;2022-10-31T09:59:41;18.92;;;5.28;;
32746;SDS011;19118;50.860;13.662;2022-10-31T10:09:55;9.98;;;4.13;;
32746;SDS011;19118;50.860;13.662;2022-10-31T10:21:40;15.10;;;4.40;;
32746;SDS011;19118;50.860;13.662;2022-10-31T10:26:48;22.75;;;5.07;;
32746;SDS011;19118;50.860;13.662;2022-10-31T10:31:59;22.75;;;5.13;;
32746;SDS011;19118;50.860;13.662;2022-10-31T10:42:37;24.55;;;5.05;;
32746;SDS011;19118;50.860;13.662;2022-10-31T10:47:58;13.73;;;4.53;;
32746;SDS011;19118;50.860;13.662;2022-10-31T10:58:39;18.27;;;4.88;;
32746;SDS011;19118;50.860;13.662;2022-10-31T11:03:41;14.73;;;4.57;;
32746;SDS011;19118;50.860;13.662;2022-10-31T11:08:42;13.43;;;4.30;;
32746;SDS011;19118;50.860;13.662;2022-10-31T11:13:43;17.63;;;4.80;;
32746;SDS011;19118;50.860;13.662;2022-10-31T11:18:46;14.38;;;4.10;;
32746;SDS011;19118;50.860;13.662;2022-10-31T11:23:47;14.57;;;4.25;;
32746;SDS011;19118;50.860;13.662;2022-10-31T11:28:57;15.83;;;4.37;;
32746;SDS011;19118;50.860;13.662;2022-10-31T11:33:59;12.43;;;4.15;;
32746;SDS011;19118;50.860;13.662;2022-10-31T11:39:03;19.88;;;4.07;;
32746;SDS011;19118;50.860;13.662;2022-10-31T11:44:11;26.38;;;4.63;;
32746;SDS011;19118;50.860;13.662;2022-10-31T11:49:15;10.13;;;4.00;;
32746;SDS011;19118;50.860;13.662;2022-10-31T11:54:19;11.77;;;3.75;;
32746;SDS011;19118;50.860;13.662;2022-10-31T11:59:30;14.30;;;4.35;;
32746;SDS011;19118;50.860;13.662;2022-10-31T12:04:34;9.85;;;3.47;;
32746;SDS011;19118;50.860;13.662;2022-10-31T12:09:45;13.05;;;4.53;;
32746;SDS011;19118;50.860;13.662;2022-10-31T12:14:50;19.30;;;4.47;;
32746;SDS011;19118;50.860;13.662;2022-10-31T12:41:03;13.23;;;4.38;;
32746;SDS011;19118;50.860;13.662;2022-10-31T12:46:34;24.33;;;4.63;;
32746;SDS011;19118;50.860;13.662;2022-10-31T12:52:00;20.13;;;4.20;;
32746;SDS011;19118;50.860;13.662;2022-10-31T12:57:16;12.95;;;5.07;;
32746;SDS011;19118;50.860;13.662;2022-10-31T13:08:01;16.13;;;5.70;;
32746;SDS011;19118;50.860;13.662;2022-10-31T13:13:07;15.05;;;5.80;;
32746;SDS011;19118;50.860;13.662;2022-10-31T13:18:18;15.47;;;5.23;;
32746;SDS011;19118;50.860;13.662;2022-10-31T13:23:36;22.13;;;5.80;;
32746;SDS011;19118;50.860;13.662;2022-10-31T13:38:59;16.77;;;6.05;;
32746;SDS011;19118;50.860;13.662;2022-10-31T13:49:36;19.40;;;5.40;;
32746;SDS011;19118;50.860;13.662;2022-10-31T13:54:38;17.70;;;6.65;;
32746;SDS011;19118;50.860;13.662;2022-10-31T13:59:53;16.05;;;5.70;;
32746;SDS011;19118;50.860;13.662;2022-10-31T14:05:38;16.35;;;5.35;;
32746;SDS011;19118;50.860;13.662;2022-10-31T14:10:29;20.53;;;6.23;;
32746;SDS011;19118;50.860;13.662;2022-10-31T14:15:32;24.58;;;6.72;;
32746;SDS011;19118;50.860;13.662;2022-10-31T14:25:35;21.17;;;6.93;;
32746;SDS011;19118;50.860;13.662;2022-10-31T14:30:36;18.38;;;5.78;;
32746;SDS011;19118;50.860;13.662;2022-10-31T14:35:42;16.30;;;5.40;;
32746;SDS011;19118;50.860;13.662;2022-10-31T14:41:04;17.50;;;6.47;;
32746;SDS011;19118;50.860;13.662;2022-10-31T14:52:13;14.95;;;5.57;;
32746;SDS011;19118;50.860;13.662;2022-10-31T14:57:50;18.98;;;7.35;;
32746;SDS011;19118;50.860;13.662;2022-10-31T15:02:50;22.00;;;6.50;;
32746;SDS011;19118;50.860;13.662;2022-10-31T15:07:59;19.42;;;7.53;;
32746;SDS011;19118;50.860;13.662;2022-10-31T15:13:09;22.67;;;7.30;;
32746;SDS011;19118;50.860;13.662;2022-10-31T15:18:16;18.08;;;7.80;;
32746;SDS011;19118;50.860;13.662;2022-10-31T15:23:23;19.73;;;7.97;;
32746;SDS011;19118;50.860;13.662;2022-10-31T15:28:25;21.77;;;7.82;;
32746;SDS011;19118;50.860;13.662;2022-10-31T15:33:27;25.10;;;8.40;;
32746;SDS011;19118;50.860;13.662;2022-10-31T15:38:30;21.85;;;8.25;;
32746;SDS011;19118;50.860;13.662;2022-10-31T15:43:32;23.48;;;7.35;;
32746;SDS011;19118;50.860;13.662;2022-10-31T15:48:36;28.75;;;8.25;;
32746;SDS011;19118;50.860;13.662;2022-10-31T15:53:42;16.60;;;8.30;;
32746;SDS011;19118;50.860;13.662;2022-10-31T15:58:47;21.23;;;10.47;;
32746;SDS011;19118;50.860;13.662;2022-10-31T16:09:01;36.15;;;20.77;;
32746;SDS011;19118;50.860;13.662;2022-10-31T16:14:04;37.38;;;14.15;;
32746;SDS011;19118;50.860;13.662;2022-10-31T16:19:12;36.63;;;12.85;;
32746;SDS011;19118;50.860;13.662;2022-10-31T16:24:26;31.67;;;12.52;;
32746;SDS011;19118;50.860;13.662;2022-10-31T16:29:36;29.38;;;14.80;;
32746;SDS011;19118;50.860;13.662;2022-10-31T16:34:39;40.58;;;17.17;;
32746;SDS011;19118;50.860;13.662;2022-10-31T16:39:40;39.15;;;15.65;;
32746;SDS011;19118;50.860;13.662;2022-10-31T16:44:40;28.57;;;12.63;;
32746;SDS011;19118;50.860;13.662;2022-10-31T16:49:46;36.00;;;14.18;;
32746;SDS011;19118;50.860;13.662;2022-10-31T16:54:48;30.15;;;13.43;;
32746;SDS011;19118;50.860;13.662;2022-10-31T16:59:51;24.20;;;10.57;;
32746;SDS011;19118;50.860;13.662;2022-10-31T17:04:53;25.10;;;11.45;;
32746;SDS011;19118;50.860;13.662;2022-10-31T17:09:54;33.35;;;11.80;;
32746;SDS011;19118;50.860;13.662;2022-10-31T17:14:54;21.03;;;9.90;;
32746;SDS011;19118;50.860;13.662;2022-10-31T17:19:55;29.80;;;10.52;;
32746;SDS011;19118;50.860;13.662;2022-10-31T17:24:56;22.27;;;9.07;;
32746;SDS011;19118;50.860;13.662;2022-10-31T17:29:56;25.83;;;10.27;;
32746;SDS011;19118;50.860;13.662;2022-10-31T17:34:56;21.90;;;10.10;;
32746;SDS011;19118;50.860;13.662;2022-10-31T17:39:57;37.00;;;10.25;;
32746;SDS011;19118;50.860;13.662;2022-10-31T17:44:57;19.73;;;9.23;;
32746;SDS011;19118;50.860;13.662;2022-10-31T17:49:57;17.85;;;9.85;;
32746;SDS011;19118;50.860;13.662;2022-10-31T17:55:01;25.57;;;9.57;;
32746;SDS011;19118;50.860;13.662;2022-10-31T18:00:05;23.42;;;10.07;;
32746;SDS011;19118;50.860;13.662;2022-10-31T18:05:11;18.95;;;10.38;;
32746;SDS011;19118;50.860;13.662;2022-10-31T18:10:12;27.98;;;10.30;;
32746;SDS011;19118;50.860;13.662;2022-10-31T18:15:13;24.35;;;12.05;;
32746;SDS011;19118;50.860;13.662;2022-10-31T18:20:14;22.35;;;10.25;;
32746;SDS011;19118;50.860;13.662;2022-10-31T18:25:14;26.00;;;10.23;;
32746;SDS011;19118;50.860;13.662;2022-10-31T18:30:14;24.85;;;10.02;;
32746;SDS011;19118;50.860;13.662;2022-10-31T18:35:15;27.52;;;9.23;;
32746;SDS011;19118;50.860;13.662;2022-10-31T18:40:16;23.95;;;9.30;;
32746;SDS011;19118;50.860;13.662;2022-10-31T18:45:16;18.30;;;8.52;;
32746;SDS011;19118;50.860;13.662;2022-10-31T18:50:17;26.35;;;10.27;;
32746;SDS011;19118;50.860;13.662;2022-10-31T18:55:17;21.27;;;8.48;;
32746;SDS011;19118;50.860;13.662;2022-10-31T19:00:18;22.85;;;9.50;;
32746;SDS011;19118;50.860;13.662;2022-10-31T19:05:21;24.10;;;9.82;;
32746;SDS011;19118;50.860;13.662;2022-10-31T19:10:21;25.38;;;9.10;;
32746;SDS011;19118;50.860;13.662;2022-10-31T19:15:22;30.75;;;10.38;;
32746;SDS011;19118;50.860;13.662;2022-10-31T19:20:22;25.15;;;9.82;;
32746;SDS011;19118;50.860;13.662;2022-10-31T19:25:23;22.10;;;9.65;;
32746;SDS011;19118;50.860;13.662;2022-10-31T19:30:23;29.08;;;9.30;;
32746;SDS011;19118;50.860;13.662;2022-10-31T19:35:24;24.13;;;9.05;;
32746;SDS011;19118;50.860;13.662;2022-10-31T19:40:24;20.13;;;8.45;;
32746;SDS011;19118;50.860;13.662;2022-10-31T19:45:24;21.90;;;8.57;;
32746;SDS011;19118;50.860;13.662;2022-10-31T19:50:25;20.35;;;8.35;;
32746;SDS011;19118;50.860;13.662;2022-10-31T19:55:26;22.15;;;9.48;;
32746;SDS011;19118;50.860;13.662;2022-10-31T20:00:27;22.75;;;9.05;;
32746;SDS011;19118;50.860;13.662;2022-10-31T20:05:27;24.50;;;8.30;;
32746;SDS011;19118;50.860;13.662;2022-10-31T20:10:27;23.20;;;8.77;;
32746;SDS011;19118;50.860;13.662;2022-10-31T20:15:28;19.92;;;6.93;;
32746;SDS011;19118;50.860;13.662;2022-10-31T20:20:28;23.42;;;7.80;;
32746;SDS011;19118;50.860;13.662;2022-10-31T20:25:28;23.47;;;8.90;;
32746;SDS011;19118;50.860;13.662;2022-10-31T20:30:33;14.48;;;7.07;;
32746;SDS011;19118;50.860;13.662;2022-10-31T20:35:36;22.38;;;8.05;;
32746;SDS011;19118;50.860;13.662;2022-10-31T20:40:37;23.67;;;7.78;;
32746;SDS011;19118;50.860;13.662;2022-10-31T20:45:38;24.67;;;8.15;;
32746;SDS011;19118;50.860;13.662;2022-10-31T20:50:38;19.25;;;6.50;;
32746;SDS011;19118;50.860;13.662;2022-10-31T20:55:38;26.17;;;7.03;;
32746;SDS011;19118;50.860;13.662;2022-10-31T21:00:39;17.17;;;6.38;;
32746;SDS011;19118;50.860;13.662;2022-10-31T21:05:39;20.30;;;7.37;;
32746;SDS011;19118;50.860;13.662;2022-10-31T21:10:40;14.15;;;6.53;;
32746;SDS011;19118;50.860;13.662;2022-10-31T21:15:40;18.90;;;7.47;;
32746;SDS011;19118;50.860;13.662;2022-10-31T21:20:41;19.02;;;6.85;;
32746;SDS011;19118;50.860;13.662;2022-10-31T21:25:42;16.92;;;6.38;;
32746;SDS011;19118;50.860;13.662;2022-10-31T21:30:44;17.02;;;6.75;;
32746;SDS011;19118;50.860;13.662;2022-10-31T21:35:48;37.13;;;8.43;;
32746;SDS011;19118;50.860;13.662;2022-10-31T21:40:56;17.75;;;6.88;;
32746;SDS011;19118;50.860;13.662;2022-10-31T21:46:01;15.45;;;7.35;;
32746;SDS011;19118;50.860;13.662;2022-10-31T21:51:03;17.17;;;6.75;;
32746;SDS011;19118;50.860;13.662;2022-10-31T21:56:04;16.17;;;6.53;;
32746;SDS011;19118;50.860;13.662;2022-10-31T22:01:05;14.48;;;6.10;;
32746;SDS011;19118;50.860;13.662;2022-10-31T22:06:06;18.48;;;7.15;;
32746;SDS011;19118;50.860;13.662;2022-10-31T22:11:08;25.17;;;7.68;;
32746;SDS011;19118;50.860;13.662;2022-10-31T22:16:17;19.60;;;7.97;;
32746;SDS011;19118;50.860;13.662;2022-10-31T22:21:19;32.75;;;7.50;;
32746;SDS011;19118;50.860;13.662;2022-10-31T22:26:22;16.73;;;7.63;;
32746;SDS011;19118;50.860;13.662;2022-10-31T22:31:24;15.18;;;7.28;;
32746;SDS011;19118;50.860;13.662;2022-10-31T22:36:26;15.25;;;7.10;;
32746;SDS011;19118;50.860;13.662;2022-10-31T22:41:29;26.58;;;7.88;;
32746;SDS011;19118;50.860;13.662;2022-10-31T22:46:32;21.88;;;8.43;;
32746;SDS011;19118;50.860;13.662;2022-10-31T22:51:35;19.25;;;7.82;;
32746;SDS011;19118;50.860;13.662;2022-10-31T22:56:37;15.48;;;8.35;;
32746;SDS011;19118;50.860;13.662;2022-10-31T23:01:38;21.52;;;8.90;;
32746;SDS011;19118;50.860;13.662;2022-10-31T23:06:39;16.85;;;7.68;;
32746;SDS011;19118;50.860;13.662;2022-10-31T23:11:39;18.35;;;7.65;;
32746;SDS011;19118;50.860;13.662;2022-10-31T23:16:50;22.38;;;8.38;;
32746;SDS011;19118;50.860;13.662;2022-10-31T23:21:53;16.25;;;7.53;;
32746;SDS011;19118;50.860;13.662;2022-10-31T23:26:59;16.90;;;7.18;;
32746;SDS011;19118;50.860;13.662;2022-10-31T23:32:17;17.35;;;7.68;;
32746;SDS011;19118;50.860;13.662;2022-10-31T23:37:21;16.08;;;6.68;;
32746;SDS011;19118;50.860;13.662;2022-10-31T23:42:23;19.83;;;6.88;;
32746;SDS011;19118;50.860;13.662;2022-10-31T23:47:25;20.90;;;6.55;;
32746;SDS011;19118;50.860;13.662;2022-10-31T23:52:25;16.30;;;6.28;;
32746;SDS011;19118;50.860;13.662;2022-10-31T23:57:25;18.30;;;6.28;;
